X  Sluiten METAR luchtvaart weer gegevens      EHAM Amsterdam Airport Schiphol
Temperatuur
8°C Temperatuur
7°C Dauwpunt
93% Vochtigheid



Wind
21 KM/U
13 MPH
6 M/S
11 KTS



190°
Z
Huidig weer

Wat bewolking Wat bewolking
Luchtdruk 1015.92 (hPa) - 30 (inHg)
Zicht 6 (mijl) - 9.7 (km)
Vliegveld
Vliegveld code EHAM

Locatie : Amsterdam Airport Schiphol
Afstand: 34 (km)

Metar:
EHAM 282025Z 19011KT 9999 FEW015 BKN018 BKN032 08/07 Q1016 NOSIG

Tijd: 28-02-2024 21:25 CET